createdAt,value
2019-05-09T00:02:03.980Z,6.38
2019-05-09T00:04:34.121Z,6.40
2019-05-09T00:07:03.628Z,6.38
2019-05-09T00:09:35.241Z,6.33
2019-05-09T00:12:03.947Z,6.28
2019-05-09T00:14:34.255Z,6.30
2019-05-09T00:17:03.814Z,6.28
2019-05-09T00:19:33.359Z,6.22
2019-05-09T00:22:03.255Z,6.17
2019-05-09T00:24:33.223Z,6.06
2019-05-09T00:27:05.045Z,5.98
2019-05-09T00:29:40.768Z,5.97
2019-05-09T00:32:27.271Z,5.96
2019-05-09T00:35:09.583Z,5.88
2019-05-09T00:37:58.003Z,5.75
2019-05-09T00:40:29.503Z,5.70
2019-05-09T00:42:58.166Z,5.74
2019-05-09T00:45:28.507Z,5.81
2019-05-09T00:47:57.224Z,5.83
2019-05-09T00:50:25.884Z,5.85
2019-05-09T00:52:54.383Z,5.84
2019-05-09T00:55:23.853Z,5.71
2019-05-09T00:57:53.429Z,5.73
2019-05-09T01:00:24.279Z,5.69
2019-05-09T01:02:56.132Z,5.72
2019-05-09T01:05:24.780Z,5.68
2019-05-09T01:07:53.903Z,5.61
2019-05-09T01:10:23.672Z,5.57
2019-05-09T01:12:54.208Z,5.53
2019-05-09T01:15:24.010Z,5.50
2019-05-09T01:17:53.615Z,5.49
2019-05-09T01:20:24.146Z,5.52
2019-05-09T01:22:54.029Z,5.53
2019-05-09T01:25:24.050Z,5.51
2019-05-09T01:27:53.865Z,5.42
2019-05-09T01:30:24.231Z,5.32
2019-05-09T01:33:13.625Z,5.34
2019-05-09T01:35:43.409Z,5.15
2019-05-09T01:38:14.277Z,5.30
2019-05-09T01:40:44.059Z,5.28
2019-05-09T01:43:13.842Z,5.23
2019-05-09T01:45:43.594Z,5.14
2019-05-09T01:48:13.966Z,5.08
2019-05-09T01:50:43.242Z,5.06
2019-05-09T01:53:16.805Z,4.95
2019-05-09T01:56:03.947Z,4.80
2019-05-09T01:58:34.517Z,4.88
2019-05-09T02:01:06.916Z,4.90
2019-05-09T02:03:35.573Z,4.85
2019-05-09T02:06:04.522Z,4.77
2019-05-09T02:08:34.557Z,4.74
2019-05-09T02:11:04.007Z,4.80
2019-05-09T02:13:33.925Z,4.82
2019-05-09T02:16:11.120Z,4.79
2019-05-09T02:18:41.505Z,4.64
2019-05-09T02:21:12.279Z,4.53
2019-05-09T02:23:40.543Z,4.42
2019-05-09T02:26:09.223Z,4.34
2019-05-09T02:28:37.868Z,4.35
2019-05-09T02:31:09.744Z,4.33
2019-05-09T02:33:38.325Z,4.33
2019-05-09T02:36:09.640Z,4.35
2019-05-09T02:38:39.215Z,4.35
2019-05-09T02:41:08.706Z,4.36
2019-05-09T02:43:38.856Z,4.35
2019-05-09T02:46:19.938Z,4.30
2019-05-09T02:48:49.694Z,4.26
2019-05-09T02:51:18.877Z,4.23
2019-05-09T02:53:50.703Z,4.21
2019-05-09T02:56:19.373Z,4.22
2019-05-09T02:59:04.801Z,4.15
2019-05-09T03:01:53.477Z,4.28
2019-05-09T03:04:22.212Z,4.36
2019-05-09T03:06:53.885Z,4.32
2019-05-09T03:09:22.532Z,4.36
2019-05-09T03:11:51.180Z,4.40
2019-05-09T03:14:19.830Z,4.43
2019-05-09T03:16:49.306Z,4.47
2019-05-09T03:19:19.674Z,4.49
2019-05-09T03:24:40.562Z,4.61
2019-05-09T03:27:10.846Z,4.73
2019-05-09T03:29:41.192Z,4.82
2019-05-09T03:32:09.842Z,4.90
2019-05-09T03:34:38.423Z,5.06
2019-05-09T03:37:09.597Z,5.16
2019-05-09T03:39:38.237Z,5.28
2019-05-09T03:42:07.854Z,5.34
2019-05-09T03:44:38.508Z,5.42
2019-05-09T03:47:12.639Z,5.48
2019-05-09T03:49:41.259Z,5.55
2019-05-09T03:52:12.352Z,5.67
2019-05-09T03:54:41.000Z,5.83
2019-05-09T03:57:12.271Z,5.95
2019-05-09T03:59:40.844Z,6.10
2019-05-09T04:02:10.309Z,6.31
2019-05-09T04:04:44.662Z,6.43
2019-05-09T04:07:13.234Z,6.57
2019-05-09T04:09:41.773Z,6.78
2019-05-09T04:12:13.257Z,6.96
2019-05-09T04:14:41.944Z,7.02
2019-05-09T04:17:11.857Z,7.07
2019-05-09T04:19:42.546Z,7.19
2019-05-09T04:22:11.130Z,7.31
2019-05-09T04:24:39.802Z,7.34
2019-05-09T04:27:13.022Z,7.36
2019-05-09T04:29:41.636Z,7.42
2019-05-09T04:32:10.347Z,7.39
2019-05-09T04:34:38.950Z,7.52
2019-05-09T04:37:08.138Z,7.59
2019-05-09T04:39:38.705Z,7.71
2019-05-09T04:42:18.345Z,7.93
2019-05-09T04:44:49.882Z,8.22
2019-05-09T04:47:18.340Z,8.43
2019-05-09T04:49:47.919Z,8.39
2019-05-09T04:52:18.042Z,8.32
2019-05-09T04:54:48.680Z,8.54
2019-05-09T04:57:17.921Z,8.83
2019-05-09T04:59:49.792Z,9.04
2019-05-09T05:02:29.364Z,9.12
2019-05-09T05:05:01.053Z,9.09
2019-05-09T05:07:29.740Z,9.15
2019-05-09T05:09:58.313Z,9.10
2019-05-09T05:12:27.777Z,9.32
2019-05-09T05:14:59.236Z,9.49
2019-05-09T05:17:30.776Z,9.63
2019-05-09T05:20:00.362Z,9.75
2019-05-09T05:22:30.623Z,9.79
2019-05-09T05:25:04.243Z,9.95
2019-05-09T05:27:32.851Z,10.04
2019-05-09T05:30:02.701Z,10.30
2019-05-09T05:32:33.371Z,10.58
2019-05-09T05:35:08.055Z,10.70
2019-05-09T05:37:38.617Z,10.93
2019-05-09T05:40:08.789Z,11.22
2019-05-09T05:42:38.863Z,11.28
2019-05-09T05:45:11.154Z,11.55
2019-05-09T05:47:41.489Z,11.64
2019-05-09T05:50:10.143Z,11.68
2019-05-09T05:52:42.129Z,11.88
2019-05-09T05:55:10.919Z,11.93
2019-05-09T05:57:41.126Z,12.01
2019-05-09T06:00:11.175Z,12.28
2019-05-09T06:02:41.469Z,12.29
2019-05-09T06:05:10.166Z,12.45
2019-05-09T06:07:38.897Z,12.64
2019-05-09T06:10:08.236Z,12.87
2019-05-09T06:12:38.720Z,13.11
2019-05-09T06:15:07.811Z,13.17
2019-05-09T06:17:37.960Z,13.28
2019-05-09T06:20:09.187Z,13.30
2019-05-09T06:22:42.465Z,13.39
2019-05-09T06:25:20.160Z,14.11
2019-05-09T06:27:48.188Z,14.09
2019-05-09T06:30:21.147Z,14.49
2019-05-09T06:32:49.962Z,14.74
2019-05-09T06:35:21.699Z,14.80
2019-05-09T06:37:52.981Z,15.04
2019-05-09T06:40:23.434Z,15.22
2019-05-09T06:42:52.553Z,15.39
2019-05-09T06:45:41.800Z,15.11
2019-05-09T06:48:13.349Z,15.32
2019-05-09T06:50:42.044Z,15.71
2019-05-09T06:53:10.811Z,16.03
2019-05-09T06:55:39.604Z,16.27
2019-05-09T06:58:31.196Z,16.75
2019-05-09T07:01:14.919Z,16.85
2019-05-09T07:03:51.254Z,16.85
2019-05-09T07:06:21.574Z,17.05
2019-05-09T07:08:54.430Z,17.84
2019-05-09T07:11:23.087Z,18.12
2019-05-09T07:13:51.754Z,18.32
2019-05-09T07:16:23.712Z,17.92
2019-05-09T07:18:57.760Z,18.05
2019-05-09T07:21:28.621Z,18.50
2019-05-09T07:23:58.277Z,19.27
2019-05-09T07:26:31.346Z,19.18
2019-05-09T07:29:00.195Z,19.34
2019-05-09T07:31:33.112Z,19.56
2019-05-09T07:34:03.476Z,19.84
2019-05-09T07:36:38.351Z,19.49
2019-05-09T07:39:08.983Z,19.30
2019-05-09T07:41:38.366Z,19.17
2019-05-09T07:44:07.767Z,19.45
2019-05-09T07:46:38.441Z,19.24
2019-05-09T07:49:08.611Z,18.50
2019-05-09T07:51:40.716Z,18.96
2019-05-09T07:54:21.259Z,19.63
2019-05-09T07:56:39.932Z,20.02
2019-05-09T07:59:08.637Z,20.24
2019-05-09T08:01:39.974Z,20.12
2019-05-09T08:04:08.602Z,21.01
2019-05-09T08:06:38.096Z,21.24
2019-05-09T08:09:08.454Z,21.21
2019-05-09T08:11:37.765Z,21.56
2019-05-09T08:14:08.352Z,23.18
2019-05-09T08:16:37.991Z,22.88
2019-05-09T08:19:07.540Z,22.49
2019-05-09T08:21:38.306Z,21.93
2019-05-09T08:24:08.053Z,21.14
2019-05-09T08:26:39.265Z,21.63
2019-05-09T08:29:09.450Z,22.42
2019-05-09T08:31:40.046Z,22.15
2019-05-09T08:34:11.193Z,22.68
2019-05-09T08:36:39.962Z,22.49
2019-05-09T08:39:09.551Z,22.53
2019-05-09T08:41:38.638Z,22.13
2019-05-09T08:44:08.269Z,23.01
2019-05-09T08:46:37.709Z,23.24
2019-05-09T08:49:08.237Z,23.52
2019-05-09T08:51:52.765Z,22.78
2019-05-09T08:54:12.315Z,22.46
2019-05-09T08:56:40.982Z,22.44
2019-05-09T08:59:12.524Z,23.16
2019-05-09T09:02:12.188Z,23.67
2019-05-09T09:04:24.498Z,23.67
2019-05-09T09:06:53.061Z,23.73
2019-05-09T09:09:21.815Z,23.22
2019-05-09T09:11:50.562Z,24.49
2019-05-09T09:14:19.287Z,24.43
2019-05-09T09:16:48.038Z,25.68
2019-05-09T09:19:17.917Z,24.44
2019-05-09T09:21:49.788Z,25.90
2019-05-09T09:24:18.436Z,26.71
2019-05-09T09:26:48.775Z,27.16
2019-05-09T09:29:17.881Z,28.16
2019-05-09T09:31:48.304Z,28.63
2019-05-09T09:34:18.150Z,29.48
2019-05-09T09:36:48.081Z,28.60
2019-05-09T09:39:18.914Z,27.81
2019-05-09T09:41:49.505Z,28.54
2019-05-09T09:44:21.969Z,29.56
2019-05-09T09:46:52.110Z,29.49
2019-05-09T09:49:23.738Z,30.29
2019-05-09T09:51:54.252Z,27.83
2019-05-09T09:54:28.105Z,28.22
2019-05-09T09:57:03.427Z,28.63
2019-05-09T09:59:48.334Z,27.12
2019-05-09T10:02:27.806Z,25.37
2019-05-09T10:04:58.784Z,24.91
2019-05-09T10:07:41.093Z,24.86
2019-05-09T10:10:48.593Z,24.79
2019-05-09T10:13:14.046Z,24.47
2019-05-09T10:15:44.380Z,26.03
2019-05-09T10:18:30.751Z,26.70
2019-05-09T10:21:10.108Z,25.46
2019-05-09T10:23:40.547Z,25.27
2019-05-09T10:26:10.663Z,24.90
2019-05-09T10:28:39.764Z,25.95
2019-05-09T10:31:08.894Z,26.07
2019-05-09T10:33:37.789Z,26.11
2019-05-09T10:36:08.465Z,26.28
2019-05-09T10:38:38.665Z,25.72
2019-05-09T10:41:10.872Z,25.82
2019-05-09T10:43:39.741Z,26.00
2019-05-09T10:46:39.036Z,27.43
2019-05-09T10:49:00.318Z,27.95
2019-05-09T10:51:29.161Z,27.63
2019-05-09T10:53:58.816Z,28.31
2019-05-09T10:56:28.875Z,27.41
2019-05-09T10:58:58.497Z,26.92
2019-05-09T11:01:29.409Z,26.74
2019-05-09T11:03:58.983Z,27.28
2019-05-09T11:06:28.811Z,26.92
2019-05-09T11:08:58.482Z,27.02
2019-05-09T11:11:29.128Z,27.73
2019-05-09T11:13:59.018Z,27.66
2019-05-09T11:16:41.727Z,28.67
2019-05-09T11:19:02.758Z,30.41
2019-05-09T11:21:39.185Z,29.82
2019-05-09T11:24:08.557Z,32.29
2019-05-09T11:26:39.853Z,32.25
2019-05-09T11:29:08.228Z,31.59
2019-05-09T11:31:38.677Z,31.41
2019-05-09T11:34:09.239Z,34.05
2019-05-09T11:36:38.319Z,33.31
2019-05-09T11:39:10.987Z,31.75
2019-05-09T11:41:48.653Z,31.63
2019-05-09T11:44:18.428Z,31.21
2019-05-09T11:46:47.700Z,31.07
2019-05-09T11:49:17.927Z,32.16
2019-05-09T11:51:48.245Z,32.41
2019-05-09T11:54:19.914Z,32.22
2019-05-09T11:56:48.646Z,32.78
2019-05-09T11:59:18.896Z,31.71
2019-05-09T12:01:48.366Z,32.70
2019-05-09T12:04:18.776Z,33.42
2019-05-09T12:06:50.285Z,31.82
2019-05-09T12:09:23.858Z,32.02
2019-05-09T12:11:52.691Z,31.69
2019-05-09T12:14:21.371Z,32.13
2019-05-09T12:16:50.023Z,31.52
2019-05-09T12:19:18.753Z,30.82
2019-05-09T12:21:48.444Z,30.73
2019-05-09T12:24:18.342Z,30.29
2019-05-09T12:26:48.180Z,29.43
2019-05-09T12:29:19.580Z,29.61
2019-05-09T12:31:48.576Z,29.69
2019-05-09T12:34:19.387Z,29.78
2019-05-09T12:36:49.416Z,29.36
2019-05-09T12:39:20.089Z,29.15
2019-05-09T12:41:49.194Z,27.88
2019-05-09T12:44:18.411Z,27.41
2019-05-09T12:46:49.886Z,27.35
2019-05-09T12:49:19.147Z,26.84
2019-05-09T12:51:47.915Z,26.55
2019-05-09T12:54:19.324Z,26.07
2019-05-09T12:56:48.689Z,24.78
2019-05-09T12:59:18.748Z,24.05
2019-05-09T13:01:50.909Z,23.93
2019-05-09T13:04:19.661Z,23.82
2019-05-09T13:06:50.966Z,23.63
2019-05-09T13:09:19.663Z,23.67
2019-05-09T13:11:48.480Z,23.11
2019-05-09T13:14:19.252Z,22.38
2019-05-09T13:16:53.368Z,22.03
2019-05-09T13:19:27.923Z,22.02
2019-05-09T13:21:58.643Z,21.64
2019-05-09T13:24:28.318Z,21.55
2019-05-09T13:26:57.153Z,21.29
2019-05-09T13:29:25.771Z,20.79
2019-05-09T13:31:54.371Z,20.25
2019-05-09T13:34:23.008Z,19.55
2019-05-09T13:36:51.589Z,19.30
2019-05-09T13:39:20.233Z,19.32
2019-05-09T13:41:48.849Z,19.37
2019-05-09T13:44:18.059Z,19.43
2019-05-09T13:46:48.872Z,19.44
2019-05-09T13:49:19.283Z,19.52
2019-05-09T13:52:00.265Z,19.58
2019-05-09T13:54:20.982Z,19.79
2019-05-09T13:56:56.734Z,19.73
2019-05-09T13:59:19.862Z,19.82
2019-05-09T14:01:48.503Z,19.87
2019-05-09T14:04:17.141Z,20.02
2019-05-09T14:06:45.714Z,20.00
2019-05-09T14:09:14.326Z,19.97
2019-05-09T14:11:42.895Z,20.03
2019-05-09T14:14:12.286Z,20.17
2019-05-09T14:16:42.429Z,20.18
2019-05-09T14:19:30.185Z,20.14
2019-05-09T14:21:41.506Z,19.95
2019-05-09T14:24:15.012Z,19.77
2019-05-09T14:26:40.496Z,19.58
2019-05-09T14:29:12.742Z,19.43
2019-05-09T14:31:39.508Z,19.39
2019-05-09T14:34:08.806Z,19.62
2019-05-09T14:36:39.198Z,19.87
2019-05-09T14:39:09.392Z,19.99
2019-05-09T14:41:39.063Z,19.89
2019-05-09T14:44:09.316Z,19.67
2019-05-09T14:46:39.141Z,19.64
2019-05-09T14:49:08.238Z,19.65
2019-05-09T14:51:38.123Z,19.80
2019-05-09T14:54:09.855Z,19.76
2019-05-09T14:56:41.803Z,19.71
2019-05-09T14:59:09.766Z,19.51
2019-05-09T15:01:43.066Z,19.49
2019-05-09T15:04:09.220Z,19.40
2019-05-09T15:06:37.757Z,18.99
2019-05-09T15:09:08.382Z,19.13
2019-05-09T15:11:40.219Z,19.04
2019-05-09T15:14:08.936Z,19.13
2019-05-09T15:16:39.208Z,18.98
2019-05-09T15:19:08.511Z,18.89
2019-05-09T15:21:38.174Z,18.70
2019-05-09T15:24:09.153Z,18.70
2019-05-09T15:26:37.706Z,18.58
2019-05-09T15:29:08.059Z,18.52
2019-05-09T15:31:39.226Z,18.52
2019-05-09T15:34:10.591Z,18.41
2019-05-09T15:36:39.164Z,18.35
2019-05-09T15:39:08.695Z,18.35
2019-05-09T15:41:38.421Z,18.47
2019-05-09T15:44:08.261Z,18.26
2019-05-09T15:46:44.539Z,18.34
2019-05-09T15:49:18.205Z,18.40
2019-05-09T15:51:47.854Z,18.47
2019-05-09T15:54:17.844Z,18.47
2019-05-09T15:56:48.387Z,18.41
2019-05-09T15:59:19.876Z,18.19
2019-05-09T16:01:49.350Z,18.04
2019-05-09T16:04:20.789Z,17.83
2019-05-09T16:06:52.489Z,17.83
2019-05-09T16:09:21.508Z,17.74
2019-05-09T16:11:50.186Z,17.70
2019-05-09T16:14:21.529Z,17.67
2019-05-09T16:16:50.164Z,17.58
2019-05-09T16:19:18.678Z,17.55
2019-05-09T16:21:50.161Z,17.51
2019-05-09T16:24:19.133Z,17.50
2019-05-09T16:26:50.968Z,17.43
2019-05-09T16:29:19.618Z,17.31
2019-05-09T16:31:48.461Z,17.24
2019-05-09T16:34:17.816Z,17.26
2019-05-09T16:36:47.990Z,17.28
2019-05-09T16:39:18.250Z,17.31
2019-05-09T16:41:48.377Z,17.23
2019-05-09T16:44:18.236Z,17.13
2019-05-09T16:46:48.484Z,17.13
2019-05-09T16:49:19.705Z,17.07
2019-05-09T16:51:48.597Z,16.90
2019-05-09T16:54:18.165Z,16.91
2019-05-09T16:56:47.053Z,16.88
2019-05-09T16:59:17.901Z,16.84
2019-05-09T17:01:49.473Z,16.81
2019-05-09T17:04:19.167Z,16.80
2019-05-09T17:06:49.496Z,16.78
2019-05-09T17:09:18.127Z,16.78
2019-05-09T17:11:49.751Z,16.71
2019-05-09T17:14:21.095Z,16.64
2019-05-09T17:16:52.796Z,16.25
2019-05-09T17:19:23.117Z,16.25
2019-05-09T17:21:53.391Z,16.06
2019-05-09T17:24:23.253Z,15.91
2019-05-09T17:26:51.895Z,15.78
2019-05-09T17:29:20.566Z,15.72
2019-05-09T17:31:49.221Z,15.72
2019-05-09T17:34:18.188Z,15.54
2019-05-09T17:36:46.929Z,15.34
2019-05-09T17:39:15.571Z,15.16
2019-05-09T17:41:44.224Z,15.03
2019-05-09T17:44:12.869Z,14.83
2019-05-09T17:46:44.717Z,14.82
2019-05-09T17:49:13.483Z,14.85
2019-05-09T17:51:42.001Z,14.91
2019-05-09T17:54:10.667Z,14.83
2019-05-09T17:56:39.240Z,14.66
2019-05-09T17:59:08.491Z,14.55
2019-05-09T18:01:37.374Z,14.58
2019-05-09T18:04:08.382Z,14.59
2019-05-09T18:06:37.922Z,14.48
2019-05-09T18:09:08.574Z,14.41
2019-05-09T18:11:37.842Z,14.27
2019-05-09T18:14:09.565Z,14.27
2019-05-09T18:16:38.947Z,14.23
2019-05-09T18:19:08.581Z,14.21
2019-05-09T18:21:50.291Z,14.23
2019-05-09T18:24:09.034Z,14.16
2019-05-09T18:26:40.291Z,14.15
2019-05-09T18:29:08.882Z,14.15
2019-05-09T18:31:45.237Z,14.22
2019-05-09T18:34:19.965Z,14.46
2019-05-09T18:36:48.647Z,14.44
2019-05-09T18:39:18.614Z,14.31
2019-05-09T18:41:48.377Z,14.31
2019-05-09T18:44:19.629Z,14.30
2019-05-09T18:46:48.345Z,14.37
2019-05-09T18:49:16.985Z,14.66
2019-05-09T18:51:45.677Z,14.78
2019-05-09T18:54:14.315Z,14.82
2019-05-09T18:56:42.828Z,14.77
2019-05-09T18:59:11.404Z,14.77
2019-05-09T19:01:40.065Z,14.75
2019-05-09T19:04:11.159Z,14.81
2019-05-09T19:06:40.069Z,14.88
2019-05-09T19:09:08.779Z,14.86
2019-05-09T19:11:37.515Z,14.88
2019-05-09T19:14:07.350Z,14.78
2019-05-09T19:16:40.588Z,14.70
2019-05-09T19:19:19.939Z,14.68
2019-05-09T19:21:50.223Z,14.65
2019-05-09T19:24:18.815Z,14.58
2019-05-09T19:26:47.467Z,14.49
2019-05-09T19:29:16.045Z,14.41
2019-05-09T19:31:44.697Z,14.36
2019-05-09T19:34:16.267Z,14.33
2019-05-09T19:36:44.921Z,14.35
2019-05-09T19:39:13.593Z,14.28
2019-05-09T19:41:45.082Z,14.24
2019-05-09T19:44:13.736Z,14.11
2019-05-09T19:46:42.399Z,14.11
2019-05-09T19:49:11.091Z,14.12
2019-05-09T19:51:42.574Z,14.16
2019-05-09T19:54:11.197Z,14.03
2019-05-09T19:56:39.844Z,13.94
2019-05-09T19:59:08.718Z,13.92
2019-05-09T20:01:37.463Z,13.89
2019-05-09T20:04:06.110Z,13.90
2019-05-09T20:06:34.688Z,13.93
2019-05-09T20:09:05.025Z,13.92
2019-05-09T20:11:35.302Z,14.06
2019-05-09T20:14:05.522Z,14.17
2019-05-09T20:16:38.821Z,14.08
2019-05-09T20:19:07.471Z,13.98
2019-05-09T20:21:36.160Z,13.92
2019-05-09T20:24:05.204Z,13.92
2019-05-09T20:26:33.881Z,13.85
2019-05-09T20:29:05.239Z,13.80
2019-05-09T20:31:33.948Z,13.81
2019-05-09T20:34:02.674Z,13.82
2019-05-09T20:36:31.366Z,13.86
2019-05-09T20:39:00.202Z,13.91
2019-05-09T20:41:29.039Z,14.03
2019-05-09T20:43:57.877Z,14.11
2019-05-09T20:46:26.727Z,14.06
2019-05-09T20:48:55.559Z,14.08
2019-05-09T20:51:24.390Z,14.10
2019-05-09T20:53:53.224Z,14.05
2019-05-09T20:56:22.059Z,14.03
2019-05-09T20:58:50.829Z,13.98
2019-05-09T21:01:19.653Z,13.96
2019-05-09T21:03:59.437Z,13.99
2019-05-09T21:06:18.953Z,13.99
2019-05-09T21:08:50.509Z,13.94
2019-05-09T21:11:19.311Z,13.81
2019-05-09T21:13:48.951Z,13.86
2019-05-09T21:16:17.902Z,13.85
2019-05-09T21:18:49.264Z,13.78
2019-05-09T21:21:18.140Z,13.70
2019-05-09T21:23:46.899Z,13.66
2019-05-09T21:26:15.676Z,13.60
2019-05-09T21:28:44.562Z,13.53
2019-05-09T21:31:13.322Z,13.51
2019-05-09T21:33:42.194Z,13.40
2019-05-09T21:36:10.848Z,13.35
2019-05-09T21:38:39.559Z,13.33
2019-05-09T21:41:08.217Z,13.25
2019-05-09T21:43:36.859Z,13.20
2019-05-09T21:46:05.559Z,13.15
2019-05-09T21:48:34.202Z,13.09
2019-05-09T21:51:02.883Z,13.06
2019-05-09T21:53:40.593Z,13.00
2019-05-09T21:56:01.753Z,12.92
2019-05-09T21:58:30.406Z,12.89
2019-05-09T22:01:00.454Z,12.91
2019-05-09T22:03:29.144Z,12.93
2019-05-09T22:05:57.801Z,12.91
2019-05-09T22:08:26.485Z,12.90
2019-05-09T22:10:55.133Z,12.92
2019-05-09T22:13:23.786Z,12.91
2019-05-09T22:15:53.861Z,12.88
2019-05-09T22:18:22.443Z,12.86
2019-05-09T22:20:51.023Z,12.78
2019-05-09T22:23:19.646Z,12.65
2019-05-09T22:25:48.224Z,12.63
2019-05-09T22:28:16.872Z,12.65
2019-05-09T22:30:45.396Z,12.69
2019-05-09T22:33:14.969Z,12.72
2019-05-09T22:35:43.572Z,12.77
2019-05-09T22:38:12.223Z,12.74
2019-05-09T22:40:44.994Z,12.67
2019-05-09T22:43:13.654Z,12.73
2019-05-09T22:45:42.408Z,12.78
2019-05-09T22:48:12.304Z,12.67
2019-05-09T22:50:40.940Z,12.66
2019-05-09T22:53:09.596Z,12.61
2019-05-09T22:55:39.548Z,12.59
2019-05-09T22:58:08.203Z,12.56
2019-05-09T23:00:36.842Z,12.50
2019-05-09T23:03:05.529Z,12.34
2019-05-09T23:05:34.184Z,12.34
2019-05-09T23:08:02.818Z,12.48
2019-05-09T23:10:31.497Z,12.53
2019-05-09T23:13:00.082Z,12.63
2019-05-09T23:15:28.692Z,12.60
2019-05-09T23:17:58.575Z,12.64
2019-05-09T23:20:47.164Z,12.61
2019-05-09T23:23:23.203Z,12.46
2019-05-09T23:25:51.861Z,12.44
2019-05-09T23:28:22.819Z,12.51
2019-05-09T23:30:53.109Z,12.51
2019-05-09T23:33:22.459Z,12.63
2019-05-09T23:35:51.072Z,12.63
2019-05-09T23:38:19.642Z,12.56
2019-05-09T23:40:48.259Z,12.23
2019-05-09T23:43:16.839Z,12.28
2019-05-09T23:45:46.894Z,12.46
2019-05-09T23:48:15.512Z,12.48
2019-05-09T23:50:44.080Z,12.43
2019-05-09T23:53:12.968Z,12.44
2019-05-09T23:56:00.611Z,12.48
2019-05-09T23:58:46.905Z,12.43
